Time;durP1;ratioP1;P1;durP2;ratioP2;P2;SDS_P1;SDS_P2;PMS_P1;PMS_P2;Temp;Humidity;BMP_temperature;BMP_pressure;BME280_temperature;BME280_humidity;BME280_pressure;Samples;Min_cycle;Max_cycle;Signal;HPM_P1;HPM_P2
2021/01/16 00:00:38;;;;;;;55.45;31.23;;;26.20;1792.00;;;;;;5033790;28;20021;-69
2021/01/16 00:03:11;;;;;;;54.80;31.60;;;26.20;1792.00;;;;;;5033491;28;20474;-70
2021/01/16 00:05:38;;;;;;;55.10;30.50;;;26.20;1792.00;;;;;;5033532;28;20076;-68
2021/01/16 00:08:06;;;;;;;56.92;31.20;;;26.20;1766.40;;;;;;5033596;28;20030;-67
2021/01/16 00:10:33;;;;;;;63.83;33.20;;;26.20;1792.00;;;;;;5032995;28;20050;-68
2021/01/16 00:12:59;;;;;;;60.40;29.80;;;26.20;1792.00;;;;;;5033277;28;20069;-67
2021/01/16 00:15:26;;;;;;;56.08;28.27;;;26.20;1766.40;;;;;;5033162;28;20517;-68
2021/01/16 00:18:18;;;;;;;57.50;29.15;;;26.20;1766.40;;;;;;5033354;28;20044;-68
2021/01/16 00:20:46;;;;;;;60.22;30.45;;;26.20;1792.00;;;;;;5030180;28;20060;-67
2021/01/16 00:23:12;;;;;;;53.17;28.10;;;26.10;1792.00;;;;;;5033395;28;20112;-67
2021/01/16 00:25:38;;;;;;;50.97;26.88;;;26.10;1766.40;;;;;;5033046;28;20026;-67
2021/01/16 00:28:05;;;;;;;56.33;27.40;;;26.10;1792.00;;;;;;5033193;28;20378;-68
2021/01/16 00:30:34;;;;;;;58.95;29.05;;;26.10;1792.00;;;;;;5033162;28;20061;-67
2021/01/16 00:33:01;;;;;;;54.95;27.30;;;26.10;1792.00;;;;;;5033726;28;20022;-67
2021/01/16 00:35:28;;;;;;;55.95;26.95;;;26.10;1766.40;;;;;;5033535;28;20038;-67
2021/01/16 00:37:55;;;;;;;62.40;29.85;;;26.10;1792.00;;;;;;5033105;28;20029;-68
2021/01/16 00:40:25;;;;;;;64.40;30.83;;;26.10;1766.40;;;;;;5037023;28;20028;-68
2021/01/16 00:42:54;;;;;;;84.80;37.65;;;26.00;1792.00;;;;;;5036870;28;20041;-68
2021/01/16 00:45:21;;;;;;;97.18;41.67;;;26.00;1792.00;;;;;;5037163;28;20029;-67
2021/01/16 00:47:48;;;;;;;114.90;50.08;;;26.00;1817.60;;;;;;5037021;28;20538;-67
2021/01/16 00:50:19;;;;;;;322.58;148.38;;;26.00;1792.00;;;;;;5036833;28;20033;-67
2021/01/16 00:52:56;;;;;;;341.17;159.02;;;26.00;1792.00;;;;;;5037025;28;20018;-67
2021/01/16 00:55:23;;;;;;;223.75;102.72;;;25.90;1792.00;;;;;;5036657;28;20365;-67
2021/01/16 00:57:48;;;;;;;206.05;92.25;;;25.90;1792.00;;;;;;5036838;28;20029;-67
2021/01/16 01:00:15;;;;;;;241.63;103.78;;;25.80;1792.00;;;;;;5037446;28;20039;-67
2021/01/16 01:02:42;;;;;;;234.82;97.68;;;25.80;1792.00;;;;;;5036625;28;20471;-67
2021/01/16 01:05:09;;;;;;;276.90;113.53;;;25.80;1792.00;;;;;;5036897;28;20075;-67
2021/01/16 01:07:35;;;;;;;294.40;117.30;;;25.80;1792.00;;;;;;5036662;28;20523;-67
2021/01/16 01:10:01;;;;;;;239.13;99.32;;;25.80;1792.00;;;;;;5036583;28;20109;-66
2021/01/16 01:12:27;;;;;;;262.85;102.70;;;25.80;1792.00;;;;;;5036311;28;20053;-67
2021/01/16 01:14:52;;;;;;;205.43;84.32;;;25.80;1792.00;;;;;;5036519;28;20021;-67
2021/01/16 01:17:19;;;;;;;201.23;81.00;;;25.80;1792.00;;;;;;5036598;28;20037;-67
2021/01/16 01:19:45;;;;;;;245.35;96.38;;;25.70;1792.00;;;;;;5036643;28;20029;-67
2021/01/16 01:22:11;;;;;;;229.98;91.65;;;25.80;1792.00;;;;;;5036502;28;20025;-67
2021/01/16 01:24:37;;;;;;;199.45;86.90;;;25.70;1792.00;;;;;;5036137;28;20383;-67
2021/01/16 01:27:04;;;;;;;136.13;58.67;;;25.70;1792.00;;;;;;5036240;28;20112;-67
2021/01/16 01:29:30;;;;;;;120.93;55.17;;;25.70;1792.00;;;;;;5036274;28;20458;-67
2021/01/16 01:31:56;;;;;;;97.00;45.00;;;25.70;1792.00;;;;;;5036160;28;20037;-67
2021/01/16 01:34:21;;;;;;;97.35;47.80;;;25.70;1792.00;;;;;;5036211;28;20026;-67
2021/01/16 01:36:47;;;;;;;103.78;52.38;;;25.70;1792.00;;;;;;5036217;28;20125;-67
2021/01/16 01:39:13;;;;;;;125.32;61.38;;;25.70;1792.00;;;;;;5035926;28;20451;-67
2021/01/16 01:41:39;;;;;;;107.88;53.10;;;25.60;1792.00;;;;;;5036215;28;20059;-68
2021/01/16 01:44:06;;;;;;;80.50;41.72;;;25.60;1792.00;;;;;;5035633;28;20475;-67
2021/01/16 01:46:35;;;;;;;84.53;40.15;;;25.60;1792.00;;;;;;5036000;28;20204;-67
2021/01/16 01:49:02;;;;;;;70.75;37.85;;;0.90;1792.00;;;;;;5035642;28;20035;-67
2021/01/16 01:51:31;;;;;;;63.17;32.28;;;0.90;1792.00;;;;;;5035893;28;20033;-67
2021/01/16 01:53:59;;;;;;;61.35;29.63;;;0.90;1792.00;;;;;;5035518;28;20041;-67
2021/01/16 01:56:28;;;;;;;52.25;26.15;;;0.90;1792.00;;;;;;5035499;28;20099;-67
2021/01/16 01:58:55;;;;;;;47.08;25.15;;;0.90;1792.00;;;;;;5035874;28;20147;-67
2021/01/16 02:01:25;;;;;;;46.20;24.58;;;0.80;1792.00;;;;;;5016871;28;20063;-67
2021/01/16 02:03:51;;;;;;;42.38;22.77;;;0.80;1792.00;;;;;;5035600;28;20030;-67
2021/01/16 02:06:17;;;;;;;45.35;24.10;;;0.90;1792.00;;;;;;5035555;28;20508;-67
2021/01/16 02:08:44;;;;;;;46.55;23.67;;;0.80;1792.00;;;;;;5017486;28;20041;-67
2021/01/16 02:11:13;;;;;;;49.35;23.42;;;0.80;1817.60;;;;;;5035130;28;20076;-67
2021/01/16 02:13:39;;;;;;;45.33;22.80;;;0.80;1817.60;;;;;;5035492;28;20356;-67
2021/01/16 02:16:37;;;;;;;42.10;22.65;;;0.80;1792.00;;;;;;5035574;28;20060;-67
2021/01/16 02:19:06;;;;;;;46.63;24.67;;;0.80;1792.00;;;;;;4955158;28;20031;-66
2021/01/16 02:21:37;;;;;;;40.40;21.70;;;0.70;1792.00;;;;;;4955025;28;20075;-67
2021/01/16 02:24:15;;;;;;;49.95;23.90;;;0.70;1817.60;;;;;;4954989;29;20404;-67
2021/01/16 02:26:48;;;;;;;45.22;23.58;;;0.80;1817.60;;;;;;4955184;29;20035;-67
2021/01/16 02:29:14;;;;;;;51.67;25.85;;;0.80;1817.60;;;;;;4955038;29;20098;-67
2021/01/16 02:31:43;;;;;;;47.92;26.40;;;0.80;1817.60;;;;;;4954907;29;20039;-67
2021/01/16 02:34:18;;;;;;;51.35;26.27;;;0.80;1817.60;;;;;;4954811;29;20035;-67
2021/01/16 02:37:02;;;;;;;;;;;0.80;1817.60;;;;;;4955458;29;20047;-67
2021/01/16 02:39:31;;;;;;;52.08;27.75;;;0.90;1792.00;;;;;;4955015;29;20000;-67
2021/01/16 02:42:01;;;;;;;60.85;29.58;;;0.80;1817.60;;;;;;4954775;29;20035;-67
2021/01/16 02:44:36;;;;;;;53.55;29.25;;;0.80;1817.60;;;;;;4954922;29;20600;-67
2021/01/16 02:47:08;;;;;;;60.17;30.77;;;0.90;1817.60;;;;;;4954879;29;20098;-67
2021/01/16 02:49:51;;;;;;;55.78;28.17;;;0.90;1817.60;;;;;;4954908;29;20067;-67
2021/01/16 02:52:19;;;;;;;61.08;30.02;;;0.90;1817.60;;;;;;4935957;29;20042;-66
2021/01/16 02:54:46;;;;;;;55.70;28.55;;;0.90;1792.00;;;;;;4972380;28;20076;-67
2021/01/16 02:57:12;;;;;;;57.67;27.83;;;0.90;1817.60;;;;;;5034884;28;20025;-67
2021/01/16 02:59:41;;;;;;;61.95;29.58;;;0.90;1792.00;;;;;;5034920;28;20112;-67
2021/01/16 03:02:09;;;;;;;56.75;28.52;;;0.90;1792.00;;;;;;5034016;28;20025;-67
2021/01/16 03:04:36;;;;;;;53.33;28.95;;;25.60;1817.60;;;;;;5034477;28;20029;-67
2021/01/16 03:07:04;;;;;;;60.83;31.08;;;25.60;1817.60;;;;;;5034739;28;20108;-67
2021/01/16 03:09:30;;;;;;;60.53;32.40;;;25.60;1817.60;;;;;;5034393;28;20105;-67
2021/01/16 03:11:57;;;;;;;59.10;30.23;;;25.70;1817.60;;;;;;5034109;28;20499;-67
2021/01/16 03:14:26;;;;;;;69.00;33.95;;;25.70;1817.60;;;;;;5034403;28;20408;-67
2021/01/16 03:17:12;;;;;;;65.60;33.20;;;25.70;1843.20;;;;;;5034266;28;20033;-67
2021/01/16 03:19:49;;;;;;;74.25;32.70;;;25.80;1843.20;;;;;;5034251;28;20025;-67
2021/01/16 03:22:26;;;;;;;68.28;31.95;;;25.80;1843.20;;;;;;5034327;28;20024;-67
2021/01/16 03:24:56;;;;;;;66.45;31.75;;;25.80;1843.20;;;;;;5034353;28;20529;-67
2021/01/16 03:27:23;;;;;;;70.68;33.80;;;25.90;1843.20;;;;;;5016795;28;20406;-67
2021/01/16 03:29:50;;;;;;;63.58;32.22;;;25.90;1843.20;;;;;;5034145;28;20079;-67
2021/01/16 03:32:16;;;;;;;59.00;31.30;;;25.90;1843.20;;;;;;5034174;28;20098;-67
2021/01/16 03:34:44;;;;;;;58.03;30.17;;;26.00;1843.20;;;;;;5034259;28;20021;-67
2021/01/16 03:37:10;;;;;;;60.55;30.10;;;26.00;1843.20;;;;;;5033923;28;20021;-67
2021/01/16 03:39:37;;;;;;;59.40;31.02;;;26.00;1843.20;;;;;;5033857;28;20525;-67
2021/01/16 03:42:04;;;;;;;57.05;30.27;;;26.00;1843.20;;;;;;5033989;28;20021;-67
2021/01/16 03:44:29;;;;;;;56.13;28.77;;;26.00;1843.20;;;;;;5033989;28;20036;-67
2021/01/16 03:46:55;;;;;;;56.78;28.40;;;26.00;1843.20;;;;;;5034035;28;20021;-67
2021/01/16 03:49:21;;;;;;;55.80;26.60;;;26.10;1843.20;;;;;;5033992;28;20405;-67
2021/01/16 03:51:47;;;;;;;56.78;28.60;;;26.10;1843.20;;;;;;5033776;28;20399;-67
2021/01/16 03:54:12;;;;;;;53.33;27.35;;;26.10;1843.20;;;;;;5033599;28;20485;-67
2021/01/16 03:56:38;;;;;;;55.45;27.00;;;26.10;1843.20;;;;;;5033669;28;20021;-67
2021/01/16 03:59:04;;;;;;;62.15;31.88;;;26.10;1817.60;;;;;;5033759;28;20025;-67
2021/01/16 04:01:32;;;;;;;58.05;29.88;;;26.10;1817.60;;;;;;5033521;28;20030;-67
2021/01/16 04:03:59;;;;;;;61.72;30.83;;;26.10;1817.60;;;;;;5033759;28;20044;-67
2021/01/16 04:06:25;;;;;;;66.22;33.28;;;26.10;1817.60;;;;;;5033627;28;20121;-67
2021/01/16 04:08:50;;;;;;;59.30;29.92;;;26.10;1817.60;;;;;;5033385;28;20037;-67
2021/01/16 04:11:16;;;;;;;64.22;31.77;;;26.10;1817.60;;;;;;5033120;28;20046;-67
2021/01/16 04:13:42;;;;;;;66.03;30.67;;;26.00;1817.60;;;;;;5038365;28;20033;-67
2021/01/16 04:16:08;;;;;;;59.00;30.27;;;26.00;1792.00;;;;;;5040308;28;20029;-66
2021/01/16 04:18:34;;;;;;;56.22;28.17;;;26.00;1792.00;;;;;;5040159;28;20026;-67
2021/01/16 04:21:00;;;;;;;65.05;31.13;;;26.00;1792.00;;;;;;5040155;28;20025;-67
2021/01/16 04:23:26;;;;;;;107.25;42.65;;;25.90;1792.00;;;;;;5039861;28;20030;-67
2021/01/16 04:25:52;;;;;;;120.28;47.88;;;25.90;1817.60;;;;;;5039389;28;20037;-67
2021/01/16 04:28:18;;;;;;;138.75;52.22;;;25.90;1817.60;;;;;;5039557;28;20030;-67
2021/01/16 04:30:44;;;;;;;160.48;59.15;;;25.90;1817.60;;;;;;5039746;28;20464;-67
2021/01/16 04:33:09;;;;;;;122.88;49.60;;;26.00;1817.60;;;;;;5040073;28;20083;-66
2021/01/16 04:35:36;;;;;;;101.53;43.97;;;26.00;1817.60;;;;;;5039888;28;20053;-67
2021/01/16 04:38:02;;;;;;;98.82;42.88;;;26.00;1843.20;;;;;;5039753;28;20029;-67
2021/01/16 04:40:28;;;;;;;112.03;49.40;;;26.10;1817.60;;;;;;5039931;28;20397;-67
2021/01/16 04:42:54;;;;;;;114.95;50.53;;;26.10;1817.60;;;;;;5039740;28;20083;-67
2021/01/16 04:45:21;;;;;;;100.13;46.63;;;26.10;1817.60;;;;;;5040010;28;20034;-67
2021/01/16 04:47:49;;;;;;;78.05;39.60;;;26.10;1843.20;;;;;;5040038;28;20105;-67
2021/01/16 04:50:17;;;;;;;75.43;39.45;;;26.10;1843.20;;;;;;5039753;28;20029;-66
2021/01/16 04:52:43;;;;;;;74.68;39.60;;;26.10;1817.60;;;;;;5039847;28;20489;-66
2021/01/16 04:55:11;;;;;;;71.93;37.05;;;26.10;1817.60;;;;;;5039825;28;20017;-67
2021/01/16 04:57:38;;;;;;;64.55;35.80;;;26.10;1817.60;;;;;;5039587;28;20029;-66
2021/01/16 05:00:12;;;;;;;71.32;36.10;;;26.10;1817.60;;;;;;5039874;28;20447;-67
2021/01/16 05:02:40;;;;;;;68.28;36.83;;;26.00;1792.00;;;;;;5039810;28;20116;-67
2021/01/16 05:05:08;;;;;;;74.95;38.95;;;26.00;1817.60;;;;;;5039691;28;20391;-66
2021/01/16 05:07:35;;;;;;;76.75;38.65;;;26.00;1792.00;;;;;;5039330;28;20128;-67
2021/01/16 05:10:06;;;;;;;109.93;54.13;;;26.00;1792.00;;;;;;5039568;28;20025;-66
2021/01/16 05:12:32;;;;;;;118.43;56.60;;;25.90;1792.00;;;;;;5039523;28;20128;-67
2021/01/16 05:15:28;;;;;;;121.72;55.13;;;25.90;1792.00;;;;;;5039860;28;20091;-67
2021/01/16 05:17:59;;;;;;;114.95;55.60;;;25.90;1817.60;;;;;;5038443;28;20025;-67
2021/01/16 05:20:26;;;;;;;110.93;51.60;;;25.90;1817.60;;;;;;5039434;28;20030;-67
2021/01/16 05:23:11;;;;;;;85.80;42.50;;;25.90;1817.60;;;;;;5039430;28;20060;-67
2021/01/16 05:25:41;;;;;;;;;;;25.90;1817.60;;;;;;5036463;28;20022;-67
2021/01/16 05:28:08;;;;;;;57.17;27.98;;;25.80;1817.60;;;;;;5036449;28;19928;-67
2021/01/16 05:31:04;;;;;;;60.17;28.05;;;25.80;1843.20;;;;;;5036106;28;20029;-66
2021/01/16 05:33:35;;;;;;;65.60;31.10;;;25.70;1817.60;;;;;;5036436;28;20036;-67
2021/01/16 05:36:04;;;;;;;52.95;27.70;;;25.70;1817.60;;;;;;5036370;28;20036;-67
2021/01/16 05:38:38;;;;;;;56.05;28.08;;;25.70;1817.60;;;;;;5036197;28;20022;-67
2021/01/16 05:41:12;;;;;;;58.20;30.00;;;25.60;1792.00;;;;;;5036080;28;20467;-67
2021/01/16 05:43:40;;;;;;;52.05;28.75;;;25.60;1792.00;;;;;;5036124;28;20033;-67
2021/01/16 05:46:11;;;;;;;54.83;29.90;;;0.90;1792.00;;;;;;5036186;28;20041;-67
2021/01/16 05:48:37;;;;;;;54.20;29.75;;;0.90;1792.00;;;;;;5036167;28;20037;-67
2021/01/16 05:51:04;;;;;;;53.25;27.75;;;0.90;1792.00;;;;;;5035877;28;20083;-67
2021/01/16 05:53:30;;;;;;;55.67;29.98;;;0.90;1792.00;;;;;;5036065;28;20060;-67
2021/01/16 05:55:59;;;;;;;66.32;34.67;;;0.80;1792.00;;;;;;5035946;28;20100;-67
2021/01/16 05:58:34;;;;;;;57.03;33.10;;;0.80;1792.00;;;;;;5035695;28;20093;-67
2021/01/16 06:01:20;;;;;;;62.85;34.25;;;0.80;1792.00;;;;;;5036074;28;20083;-66
2021/01/16 06:03:55;;;;;;;77.22;41.85;;;0.80;1792.00;;;;;;5035900;28;20025;-66
2021/01/16 06:06:22;;;;;;;94.53;49.25;;;0.80;1792.00;;;;;;5035577;28;20486;-66
2021/01/16 06:08:54;;;;;;;98.25;51.80;;;0.70;1792.00;;;;;;5035869;28;20041;-66
2021/01/16 06:11:20;;;;;;;89.25;49.08;;;0.70;1792.00;;;;;;5035026;28;20140;-66
2021/01/16 06:13:51;;;;;;;88.28;45.03;;;0.70;1792.00;;;;;;5035785;28;20026;-67
2021/01/16 06:16:20;;;;;;;80.78;42.58;;;0.70;1792.00;;;;;;5035718;28;20029;-67
2021/01/16 06:18:47;;;;;;;89.05;44.75;;;0.70;1792.00;;;;;;5035578;28;20056;-67
2021/01/16 06:21:25;;;;;;;106.28;52.28;;;0.70;1792.00;;;;;;5035431;28;20025;-67
2021/01/16 06:23:56;;;;;;;98.95;49.55;;;0.70;1792.00;;;;;;5035353;28;20426;-67
2021/01/16 06:26:23;;;;;;;84.50;46.53;;;0.70;1792.00;;;;;;5035408;28;20025;-67
2021/01/16 06:29:00;;;;;;;89.07;47.35;;;0.60;1792.00;;;;;;5035492;28;20499;-67
2021/01/16 06:31:31;;;;;;;211.70;103.65;;;0.50;1817.60;;;;;;5035142;28;20088;-66
2021/01/16 06:34:01;;;;;;;239.48;119.45;;;0.50;1817.60;;;;;;5035158;28;20506;-66
2021/01/16 06:36:32;;;;;;;283.10;141.75;;;0.50;1817.60;;;;;;5034109;28;20025;-67
2021/01/16 06:39:07;;;;;;;239.43;126.97;;;0.50;1817.60;;;;;;5035259;28;20021;-67
2021/01/16 06:41:33;;;;;;;;;;;0.60;1817.60;;;;;;5035574;28;20097;-66
2021/01/16 06:44:00;;;;;;;143.35;76.68;;;0.60;1817.60;;;;;;5035305;28;19909;-67
2021/01/16 06:46:45;;;;;;;105.25;58.47;;;0.50;1817.60;;;;;;5034880;28;20025;-66
2021/01/16 06:49:22;;;;;;;92.07;48.60;;;0.50;1817.60;;;;;;5034878;28;20448;-67
2021/01/16 06:51:51;;;;;;;89.60;44.53;;;0.50;1817.60;;;;;;5034938;28;20430;-67
2021/01/16 06:54:32;;;;;;;93.40;44.83;;;0.40;1817.60;;;;;;5034721;28;20021;-67
2021/01/16 06:57:09;;;;;;;70.70;37.63;;;0.50;1817.60;;;;;;5034546;28;20467;-66
2021/01/16 06:59:37;;;;;;;71.78;37.45;;;0.50;1817.60;;;;;;5034829;28;20021;-66
2021/01/16 07:02:29;;;;;;;139.57;74.82;;;0.50;1817.60;;;;;;5034665;28;20029;-67
2021/01/16 07:05:02;;;;;;;127.93;68.93;;;0.50;1817.60;;;;;;4954413;29;20036;-67
2021/01/16 07:07:30;;;;;;;104.88;51.72;;;0.40;1817.60;;;;;;4954460;29;20043;-67
2021/01/16 07:10:02;;;;;;;91.30;46.30;;;0.50;1817.60;;;;;;4954329;29;20134;-67
2021/01/16 07:12:28;;;;;;;94.03;46.88;;;0.50;1817.60;;;;;;4954053;29;20051;-67
2021/01/16 07:14:54;;;;;;;92.47;48.03;;;0.50;1817.60;;;;;;4954365;28;20429;-67
2021/01/16 07:17:22;;;;;;;178.32;99.38;;;0.50;1817.60;;;;;;4954387;29;20051;-67
2021/01/16 07:19:48;;;;;;;187.32;105.35;;;0.50;1817.60;;;;;;4954181;29;20028;-66
2021/01/16 07:22:14;;;;;;;203.75;114.18;;;0.50;1817.60;;;;;;4954018;29;20036;-67
2021/01/16 07:24:40;;;;;;;209.73;113.82;;;0.50;1817.60;;;;;;4954083;29;20163;-67
2021/01/16 07:27:08;;;;;;;235.30;128.70;;;0.50;1817.60;;;;;;4954157;29;20019;-67
2021/01/16 07:29:41;;;;;;;245.52;133.75;;;0.60;1817.60;;;;;;4954009;29;20272;-67
2021/01/16 07:32:14;;;;;;;164.18;91.00;;;0.70;1817.60;;;;;;4953769;29;20513;-67
2021/01/16 07:34:45;;;;;;;125.57;70.55;;;0.60;1817.60;;;;;;4953814;29;20050;-67
2021/01/16 07:37:11;;;;;;;153.35;76.13;;;0.70;1817.60;;;;;;4953873;29;20453;-67
2021/01/16 07:39:40;;;;;;;153.40;73.47;;;0.70;1817.60;;;;;;4953767;29;20113;-67
2021/01/16 07:42:15;;;;;;;144.27;76.32;;;0.60;1843.20;;;;;;5000670;28;20040;-67
2021/01/16 07:44:46;;;;;;;124.55;62.47;;;0.50;1843.20;;;;;;5034005;28;20028;-67
2021/01/16 07:47:22;;;;;;;102.88;50.83;;;0.60;1843.20;;;;;;5033502;28;20036;-68
2021/01/16 07:49:54;;;;;;;89.15;40.92;;;0.60;1843.20;;;;;;5033938;28;20067;-67
2021/01/16 07:52:24;;;;;;;72.93;33.88;;;0.70;1868.80;;;;;;5033684;28;20040;-67
2021/01/16 07:55:07;;;;;;;84.28;37.05;;;0.70;1843.20;;;;;;5033734;28;20033;-68
2021/01/16 07:57:34;;;;;;;81.13;37.10;;;0.70;1843.20;;;;;;5033836;28;20040;-67
2021/01/16 08:00:07;;;;;;;66.35;34.60;;;0.80;1843.20;;;;;;5033656;28;20033;-67
2021/01/16 08:02:39;;;;;;;71.20;35.72;;;0.80;1843.20;;;;;;5033588;28;20025;-67
2021/01/16 08:05:25;;;;;;;84.93;47.10;;;0.80;1843.20;;;;;;5033810;28;20025;-67
2021/01/16 08:07:53;;;;;;;81.43;41.45;;;0.80;1843.20;;;;;;5033564;28;20047;-67
2021/01/16 08:10:22;;;;;;;73.65;39.22;;;0.90;1843.20;;;;;;5033487;28;20149;-67
2021/01/16 08:12:56;;;;;;;69.75;35.83;;;0.90;1868.80;;;;;;5033537;28;20083;-67
2021/01/16 08:15:30;;;;;;;55.15;31.25;;;0.90;1843.20;;;;;;5033664;28;20030;-67
2021/01/16 08:17:59;;;;;;;64.15;32.80;;;25.60;1843.20;;;;;;5033320;28;20026;-68
2021/01/16 08:20:34;;;;;;;50.78;26.40;;;25.60;1868.80;;;;;;5033287;28;20041;-67
2021/01/16 08:23:03;;;;;;;52.08;27.45;;;25.60;1868.80;;;;;;5033124;28;20037;-68
2021/01/16 08:25:30;;;;;;;50.60;27.63;;;25.70;1868.80;;;;;;5033203;28;20032;-68
2021/01/16 08:27:58;;;;;;;61.72;29.25;;;25.70;1868.80;;;;;;5033517;28;20471;-67
2021/01/16 08:30:29;;;;;;;49.53;28.25;;;25.70;1843.20;;;;;;5033762;28;20052;-67
2021/01/16 08:33:09;;;;;;;72.75;36.45;;;25.80;1843.20;;;;;;5033656;28;20407;-67
2021/01/16 08:35:38;;;;;;;64.35;34.72;;;25.90;1843.20;;;;;;5033324;28;20022;-67
2021/01/16 08:38:16;;;;;;;66.47;33.20;;;25.90;1843.20;;;;;;5033350;28;20033;-67
2021/01/16 08:40:43;;;;;;;62.42;32.28;;;26.00;1843.20;;;;;;5033304;28;20032;-67
2021/01/16 08:43:09;;;;;;;67.78;33.38;;;26.10;1843.20;;;;;;5033484;28;20112;-67
2021/01/16 08:45:35;;;;;;;51.95;27.27;;;26.30;1817.60;;;;;;5033197;28;20021;-67
2021/01/16 08:48:01;;;;;;;58.40;27.48;;;26.40;1817.60;;;;;;5033452;28;20108;-68
2021/01/16 08:50:29;;;;;;;46.03;24.42;;;51.20;1843.20;;;;;;5033153;28;20032;-66
2021/01/16 08:52:55;;;;;;;48.88;23.25;;;51.30;1843.20;;;;;;5029081;28;20029;-66
2021/01/16 08:55:29;;;;;;;47.17;25.33;;;51.40;1817.60;;;;;;5013505;28;20093;-68
2021/01/16 08:58:11;;;;;;;49.20;26.70;;;51.60;1792.00;;;;;;4996053;28;20076;-68
2021/01/16 09:00:41;;;;;;;58.08;31.83;;;51.80;1817.60;;;;;;5022724;28;20471;-68
2021/01/16 09:03:19;;;;;;;68.10;36.42;;;51.90;1792.00;;;;;;5026611;28;20022;-67
2021/01/16 09:05:47;;;;;;;64.00;34.85;;;52.00;1792.00;;;;;;5026600;28;20026;-67
2021/01/16 09:08:19;;;;;;;51.28;28.70;;;52.00;1792.00;;;;;;5026436;28;20132;-67
2021/01/16 09:10:45;;;;;;;49.60;26.73;;;52.10;1766.40;;;;;;5025734;28;20060;-67
2021/01/16 09:13:30;;;;;;;58.38;30.20;;;76.80;1766.40;;;;;;5006804;28;20051;-67
2021/01/16 09:15:56;;;;;;;;;;;77.00;1740.80;;;;;;5024841;28;20026;-67
2021/01/16 09:18:22;;;;;;;50.45;28.10;;;77.10;1740.80;;;;;;5016805;28;19936;-68
2021/01/16 09:20:54;;;;;;;58.38;29.23;;;77.20;1740.80;;;;;;5016672;28;20471;-68
2021/01/16 09:23:35;;;;;;;76.05;33.08;;;77.30;1740.80;;;;;;5016838;28;20026;-69
2021/01/16 09:26:04;;;;;;;59.67;28.40;;;77.40;1638.40;;;;;;5016865;28;20026;-68
2021/01/16 09:28:47;;;;;;;74.72;33.03;;;77.40;1612.80;;;;;;5016867;28;20371;-68
2021/01/16 09:31:20;;;;;;;70.80;33.65;;;77.30;1612.80;;;;;;5016541;28;20048;-68
2021/01/16 09:33:48;;;;;;;76.53;33.10;;;77.40;1638.40;;;;;;5016560;28;20022;-67
2021/01/16 09:36:34;;;;;;;84.10;32.75;;;77.50;1664.00;;;;;;5021863;28;20061;-68
2021/01/16 09:39:00;;;;;;;75.55;38.03;;;77.60;1664.00;;;;;;5036050;28;20029;-67
2021/01/16 09:41:35;;;;;;;85.75;47.22;;;77.70;1638.40;;;;;;5036322;28;20025;-68
2021/01/16 09:44:02;;;;;;;156.15;84.43;;;102.40;1638.40;;;;;;5036329;28;20406;-67
2021/01/16 09:46:40;;;;;;;252.23;125.50;;;102.40;1612.80;;;;;;5036183;28;20483;-67
2021/01/16 09:49:08;;;;;;;231.40;121.88;;;102.40;1612.80;;;;;;5036299;28;20020;-68
2021/01/16 09:51:35;;;;;;;239.68;112.90;;;77.70;1612.80;;;;;;5036117;28;20030;-68
2021/01/16 09:54:15;;;;;;;254.80;124.32;;;77.70;1612.80;;;;;;5036171;28;20021;-67
2021/01/16 09:56:48;;;;;;;141.38;74.20;;;102.40;1612.80;;;;;;5035909;28;20056;-68
2021/01/16 09:59:21;;;;;;;122.03;65.00;;;102.40;1587.20;;;;;;5032643;28;20033;-68
2021/01/16 10:02:09;;;;;;;64.95;34.13;;;102.50;1587.20;;;;;;5036200;28;20422;-67
2021/01/16 10:04:45;;;;;;;60.42;29.63;;;102.60;1587.20;;;;;;5035898;28;20444;-68
2021/01/16 10:07:15;;;;;;;62.53;34.30;;;102.70;1536.00;;;;;;5035731;28;20029;-68
2021/01/16 10:09:43;;;;;;;67.28;39.47;;;102.70;1561.60;;;;;;5032174;28;20022;-67
2021/01/16 10:12:29;;;;;;;116.45;63.60;;;102.90;1536.00;;;;;;5035026;28;20403;-67
2021/01/16 10:14:57;;;;;;;131.50;69.22;;;102.90;1510.40;;;;;;5035553;28;20029;-68
2021/01/16 10:17:25;;;;;;;124.55;65.03;;;102.80;1536.00;;;;;;5035608;28;20068;-68
2021/01/16 10:20:00;;;;;;;136.40;74.40;;;102.80;1510.40;;;;;;5035789;28;20018;-67
2021/01/16 10:22:29;;;;;;;97.00;52.03;;;102.80;1510.40;;;;;;5035147;28;20026;-68
2021/01/16 10:25:02;;;;;;;70.75;37.25;;;102.70;1510.40;;;;;;5035252;28;20462;-68
2021/01/16 10:27:52;;;;;;;68.80;35.20;;;102.70;1536.00;;;;;;5035262;28;20113;-68
2021/01/16 10:30:32;;;;;;;71.05;35.85;;;102.70;1510.40;;;;;;5035693;28;20028;-67
2021/01/16 10:32:58;;;;;;;61.58;32.30;;;102.80;1510.40;;;;;;5035372;28;20036;-68
2021/01/16 10:35:30;;;;;;;62.85;33.03;;;102.90;1484.80;;;;;;5035144;28;20033;-68
2021/01/16 10:37:58;;;;;;;66.07;33.20;;;102.90;1459.20;;;;;;5035345;28;20151;-68
2021/01/16 10:40:25;;;;;;;76.85;39.97;;;102.90;1484.80;;;;;;5035341;28;20025;-68
2021/01/16 10:42:58;;;;;;;65.10;33.88;;;102.90;1459.20;;;;;;5035022;28;20379;-68
2021/01/16 10:45:31;;;;;;;62.67;34.17;;;102.90;1459.20;;;;;;5035072;28;20045;-68
2021/01/16 10:48:17;;;;;;;57.45;33.35;;;102.90;1459.20;;;;;;5035103;28;20029;-68
2021/01/16 10:50:45;;;;;;;99.38;55.00;;;102.90;1459.20;;;;;;5035077;28;20037;-68
2021/01/16 10:53:11;;;;;;;83.25;47.38;;;102.90;1459.20;;;;;;5034968;28;20111;-68
2021/01/16 10:55:54;;;;;;;74.80;41.20;;;103.00;1459.20;;;;;;5035071;28;20470;-68
2021/01/16 10:58:27;;;;;;;59.97;34.22;;;103.20;1459.20;;;;;;5034372;28;20025;-68
2021/01/16 11:00:58;;;;;;;51.10;29.60;;;128.00;1459.20;;;;;;5034560;28;20116;-68
2021/01/16 11:03:32;;;;;;;48.50;26.23;;;128.10;1459.20;;;;;;5034800;28;20120;-68
2021/01/16 11:06:20;;;;;;;49.55;25.27;;;128.20;1433.60;;;;;;5034260;28;20494;-68
2021/01/16 11:08:53;;;;;;;49.45;24.73;;;128.10;1459.20;;;;;;5034436;28;20025;-68
2021/01/16 11:11:26;;;;;;;40.20;21.85;;;128.10;1408.00;;;;;;5033266;28;20037;-68
2021/01/16 11:13:53;;;;;;;44.00;23.35;;;128.20;1408.00;;;;;;5034540;28;20155;-68
2021/01/16 11:16:22;;;;;;;44.22;23.10;;;128.30;1408.00;;;;;;5034466;28;20026;-68
2021/01/16 11:18:49;;;;;;;35.80;21.58;;;128.40;1408.00;;;;;;5030698;28;20030;-67
2021/01/16 11:21:39;;;;;;;33.53;20.23;;;128.50;1408.00;;;;;;5023515;28;20479;-67
2021/01/16 11:24:26;;;;;;;45.13;24.23;;;128.50;1408.00;;;;;;4965549;28;20106;-68
2021/01/16 11:26:55;;;;;;;33.75;20.33;;;128.60;1382.40;;;;;;4963174;28;20027;-68
2021/01/16 11:29:34;;;;;;;31.55;17.85;;;128.60;1382.40;;;;;;4962300;28;20031;-68
2021/01/16 11:32:13;;;;;;;33.38;19.27;;;128.60;1382.40;;;;;;4963307;28;20117;-68
2021/01/16 11:35:05;;;;;;;33.08;18.08;;;128.70;1382.40;;;;;;4963063;28;20114;-67
2021/01/16 11:37:59;;;;;;;35.25;19.10;;;128.80;1382.40;;;;;;4944284;28;20047;-68
2021/01/16 11:40:45;;;;;;;37.47;19.23;;;128.80;1382.40;;;;;;4944490;29;20041;-68
2021/01/16 11:43:13;;;;;;;39.72;20.05;;;153.60;1382.40;;;;;;4943274;29;20489;-68
2021/01/16 11:45:38;;;;;;;27.58;16.70;;;153.60;1382.40;;;;;;4936837;29;20541;-68
2021/01/16 11:48:06;;;;;;;36.40;23.70;;;153.60;1356.80;;;;;;4934587;29;20119;-68
2021/01/16 11:50:36;;;;;;;48.05;27.50;;;153.60;1331.20;;;;;;4934992;29;20028;-68
2021/01/16 11:53:12;;;;;;;45.63;27.30;;;153.60;1331.20;;;;;;4934354;29;20063;-68
2021/01/16 11:55:38;;;;;;;36.47;20.33;;;153.60;1331.20;;;;;;4934351;29;20055;-68
2021/01/16 11:58:04;;;;;;;39.88;20.67;;;153.60;1305.60;;;;;;4934895;29;20053;-68
2021/01/16 12:00:31;;;;;;;51.65;22.15;;;153.60;1305.60;;;;;;4945407;28;20038;-69
2021/01/16 12:02:58;;;;;;;114.43;61.92;;;128.80;1305.60;;;;;;4972902;28;20473;-68
2021/01/16 12:05:25;;;;;;;69.88;34.13;;;128.60;1305.60;;;;;;4972714;28;20039;-68
2021/01/16 12:07:53;;;;;;;110.10;55.60;;;128.60;1331.20;;;;;;4973122;28;20123;-68
2021/01/16 12:10:24;;;;;;;82.78;40.33;;;128.60;1356.80;;;;;;4972524;28;20470;-68
2021/01/16 12:12:50;;;;;;;58.22;30.83;;;128.50;1356.80;;;;;;4972818;28;20035;-68
2021/01/16 12:15:29;;;;;;;59.10;32.85;;;128.50;1356.80;;;;;;5006560;28;20041;-68
2021/01/16 12:17:56;;;;;;;58.90;30.55;;;128.60;1356.80;;;;;;5013744;28;20079;-68
2021/01/16 12:20:26;;;;;;;55.15;30.83;;;128.80;1331.20;;;;;;5013875;28;20087;-68
2021/01/16 12:23:00;;;;;;;44.75;26.33;;;128.90;1331.20;;;;;;5013573;28;20082;-68
2021/01/16 12:25:34;;;;;;;40.20;21.83;;;153.60;1331.20;;;;;;5013621;28;20033;-68